• Join FlightAware (Why Join?)
  • Login
  • US Flag 
02:10PM EDT


 

Airport Tracker/Info


-or-


 

Live Flight TrackerFlight Track Log ✈ UAL252 ✈ 16-06-2013 ✈ KPHX - KDEN

Flight Track Log - Related Links

Times and Time Zones

All times are in EDT time to prevent confusion due to time zone crossing. See the UAL252 flight status page for this flight to view local times or setup timezone preferences in your user account.

Time Position Orientation Groundspeed Altitude Reporting Facility
EDT Latitude Longitude Course Direction KTS MPH feet Rate Location/Type
09:20AM 33.4333 -111.9833 20° North 214 246 1,800  Level Phoenix TRACON
09:21AM 33.4333 -111.9167 90° East 215 247 3,700 1,740 Climbing Phoenix TRACON
09:23AM 33.7618 -111.8572 15° North  Level FlightAware Approximate
09:23AM 33.4592 -111.8350 69° East 263 303 5,800  Level Albuquerque Center
09:24AM 33.8722 -111.8112 20° North  Level FlightAware Approximate
09:24AM 33.5053 -111.7569 55° Northeast 286 329 8,500  Level Albuquerque Center
09:25AM 33.9821 -111.7631 20° North  Level FlightAware Approximate
09:25AM 33.5789 -111.7144 26° Northeast 301 346 11,200  Level Albuquerque Center
09:26AM 34.0920 -111.7152 20° North  Level FlightAware Approximate
09:26AM 33.6761 -111.7192 358° North 355 409 12,100  Level Albuquerque Center
09:27AM 33.7831 -111.7225 359° North 383 441 15,000 2,760 Climbing Albuquerque Center
09:28AM 33.9119 -111.7244 359° North 391 450 17,800 2,340 Climbing Albuquerque Center
09:29AM 34.0261 -111.7278 359° North 399 459 19,800 1,800 Climbing Albuquerque Center
09:30AM 34.1400 -111.6922 14° North 428 493 21,500 1,620 Climbing Albuquerque Center
09:31AM 34.2456 -111.6531 17° North 435 501 23,200 1,620 Climbing Albuquerque Center
09:32AM 34.3617 -111.6075 18° North 438 504 24,800 1,500 Climbing Albuquerque Center
09:33AM 34.4803 -111.5603 18° North 444 511 26,300 1,380 Climbing Albuquerque Center
09:34AM 34.5878 -111.4711 34° Northeast 469 540 27,600 1,140 Climbing Albuquerque Center
09:35AM 34.6758 -111.3475 49° Northeast 481 554 28,700 1,080 Climbing Albuquerque Center
09:36AM 34.7661 -111.2183 50° Northeast 494 568 29,800 1,020 Climbing Albuquerque Center
09:37AM 34.8583 -111.0878 49° Northeast 505 581 30,800 1,200 Climbing Albuquerque Center
09:38AM 34.9506 -110.9542 50° Northeast 514 592 32,300 1,080 Climbing Albuquerque Center
09:39AM 35.0433 -110.8219 49° Northeast 513 590 33,100 1,080 Climbing Albuquerque Center
09:40AM 35.1456 -110.6633 52° Northeast 521 600 34,500 900 Climbing Albuquerque Center
09:41AM 35.2317 -110.5308 51° Northeast 520 598 35,000 240 Climbing Albuquerque Center
09:42AM 35.3308 -110.3756 52° Northeast 518 596 35,000  Level Albuquerque Center
09:43AM 35.4167 -110.2422 52° Northeast 519 597 35,000  Level Albuquerque Center
09:44AM 35.5014 -110.1081 52° Northeast 519 597 35,000  Level Albuquerque Center
09:45AM 35.6017 -109.9539 51° Northeast 517 595 35,000  Level Albuquerque Center
09:46AM 35.6928 -109.8283 48° Northeast 515 593 35,000  Level Albuquerque Center
09:47AM 35.7928 -109.7133 43° Northeast 513 590 35,000 420 Level Albuquerque Center
09:48AM 35.9075 -109.5775 44° Northeast 511 588 35,900 840 Climbing Albuquerque Center
09:49AM 36.0056 -109.4611 44° Northeast 509 586 36,800 540 Climbing Albuquerque Center
09:50AM 36.1039 -109.3431 44° Northeast 511 588 37,000 60 Climbing Albuquerque Center
09:51AM 36.1856 -109.2458 44° Northeast 509 586 37,000  Level Denver Center
09:52AM 36.2847 -109.1272 44° Northeast 510 587 37,000  Level Denver Center
09:53AM 36.3828 -109.0078 44° Northeast 510 587 37,000  Level Denver Center
09:54AM 36.4794 -108.8906 44° Northeast 506 582 37,000  Level Denver Center
09:55AM 36.5922 -108.7528 44° Northeast 506 582 37,000  Level Denver Center
09:56AM 36.6886 -108.6344 45° Northeast 507 583 37,000  Level Denver Center
09:57AM 36.7836 -108.5150 45° Northeast 506 582 37,000  Level Denver Center
09:58AM 36.8958 -108.3769 45° Northeast 507 583 37,000  Level Denver Center
09:59AM 37.0086 -108.2397 44° Northeast 506 582 37,000  Level Denver Center
10:00AM 37.1197 -108.1003 45° Northeast 506 582 37,000  Level Denver Center
10:01AM 37.2153 -107.9822 45° Northeast 505 581 37,000  Level Denver Center
10:02AM 37.3253 -107.8422 45° Northeast 504 580 37,000  Level Denver Center
10:03AM 37.4206 -107.7242 45° Northeast 503 579 37,000  Level Denver Center
10:04AM 37.5156 -107.6036 45° Northeast 504 580 37,000  Level Denver Center
10:05AM 37.6258 -107.4633 45° Northeast 504 580 37,000  Level Denver Center
10:06AM 37.7206 -107.3417 45° Northeast 506 582 37,000  Level Denver Center
10:07AM 37.8294 -107.1969 46° Northeast 509 586 37,000  Level Denver Center
10:08AM 37.9231 -107.0786 45° Northeast 504 580 37,000  Level Denver Center
10:09AM 38.0003 -106.9767 46° Northeast 503 579 37,000  Level Denver Center
10:10AM 38.1258 -106.8144 45° Northeast 505 581 37,000  Level Denver Center
10:11AM 38.2200 -106.6925 45° Northeast 507 583 37,000  Level Denver Center
10:12AM 38.3272 -106.5511 46° Northeast 502 578 37,000 -480 Level Denver Center
10:13AM 38.4258 -106.4219 46° Northeast 505 581 36,100 -960 Descending Denver Center
10:14AM 38.5231 -106.2922 46° Northeast 507 583 35,100 -1,020 Descending Denver Center
10:15AM 38.6206 -106.1636 46° Northeast 504 580 34,100 -1,740 Descending Denver Center
10:16AM 38.7250 -106.0233 46° Northeast 505 581 31,600 -2,400 Descending Denver Center
10:17AM 38.8214 -105.8950 46° Northeast 501 577 29,200 -2,220 Descending Denver Center
10:18AM 38.9136 -105.7706 46° Northeast 485 558 27,100 -2,160 Descending Denver Center
10:19AM 39.0100 -105.6403 46° Northeast 469 540 24,800 -2,040 Descending Denver Center
10:20AM 39.0914 -105.5308 46° Northeast 447 514 23,000 -1,680 Descending Denver Center
10:21AM 39.1800 -105.4119 46° Northeast 434 499 21,400 -1,140 Descending Denver Center
10:22AM 39.2525 -105.3147 46° Northeast 374 430 20,700 -1,080 Descending Denver Center
10:24AM 39.3353 -105.2278 39° Northeast 355 409 19,200 -1,380 Descending Denver Center
10:25AM 39.4294 -105.1375 37° Northeast 342 394 17,700 -1,380 Descending Denver Center
10:26AM 39.5025 -105.0658 37° Northeast 330 380 16,200 -1,500 Descending Denver Center
10:27AM 39.5742 -104.9956 37° Northeast 323 372 14,700 -1,500 Descending Denver Center
10:28AM 39.6411 -104.9114 44° Northeast 310 357 13,200 -840 Descending Denver Center
10:29AM 39.6933 -104.8244 52° Northeast 308 354 13,000 -180 Descending Denver Center
10:30AM 39.7353 -104.7269 61° Northeast 289 333 12,900 -660 Descending Denver Center
10:31AM 39.7442 -104.6369 83° East 263 303 11,700 -960 Descending Denver Center
10:32AM 39.7531 -104.5394 83° East 257 296 11,000 -900 Descending Denver Center
10:33AM 39.7842 -104.4567 64° Northeast 257 296 9,900 -1,080 Descending Denver Center